createdAt,value
2018-10-03T00:00:00.590Z,0.00
2018-10-03T00:01:00.551Z,0.00
2018-10-03T00:02:00.539Z,0.00
2018-10-03T00:03:00.529Z,0.00
2018-10-03T00:04:00.521Z,0.00
2018-10-03T00:05:00.535Z,0.00
2018-10-03T00:06:00.497Z,0.00
2018-10-03T00:07:00.481Z,0.00
2018-10-03T00:08:00.477Z,0.00
2018-10-03T00:09:00.461Z,0.00
2018-10-03T00:10:00.474Z,0.00
2018-10-03T00:11:00.440Z,0.00
2018-10-03T00:12:00.426Z,0.00
2018-10-03T00:13:00.416Z,0.00
2018-10-03T00:14:00.407Z,0.00
2018-10-03T00:15:00.420Z,0.00
2018-10-03T00:16:00.385Z,0.00
2018-10-03T00:17:00.366Z,0.00
2018-10-03T00:18:00.358Z,0.00
2018-10-03T00:19:00.350Z,0.00
2018-10-03T00:20:00.359Z,0.00
2018-10-03T00:21:00.330Z,0.00
2018-10-03T00:22:00.314Z,0.00
2018-10-03T00:23:00.306Z,0.00
2018-10-03T00:24:00.288Z,0.00
2018-10-03T00:25:00.309Z,0.00
2018-10-03T00:26:00.265Z,0.00
2018-10-03T00:27:00.255Z,0.00
2018-10-03T00:28:00.246Z,0.00
2018-10-03T00:29:00.240Z,0.00
2018-10-03T00:30:00.249Z,0.00
2018-10-03T00:31:00.208Z,0.00
2018-10-03T00:32:00.201Z,0.00
2018-10-03T00:33:00.187Z,0.00
2018-10-03T00:34:00.176Z,0.00
2018-10-03T00:35:00.189Z,0.00
2018-10-03T00:36:00.153Z,0.00
2018-10-03T00:37:00.146Z,0.00
2018-10-03T00:38:00.134Z,0.00
2018-10-03T00:39:00.119Z,0.00
2018-10-03T00:40:00.138Z,0.00
2018-10-03T00:41:00.095Z,0.00
2018-10-03T00:42:00.086Z,0.00
2018-10-03T00:43:00.076Z,0.00
2018-10-03T00:44:00.076Z,0.00
2018-10-03T00:45:00.084Z,0.00
2018-10-03T00:46:00.039Z,0.00
2018-10-03T00:47:00.030Z,0.00
2018-10-03T00:48:00.028Z,0.00
2018-10-03T00:49:00.009Z,0.00
2018-10-03T00:50:00.015Z,0.00
2018-10-03T00:50:59.989Z,0.00
2018-10-03T00:51:59.973Z,0.00
2018-10-03T00:52:59.967Z,0.00
2018-10-03T00:53:59.950Z,0.00
2018-10-03T00:54:59.960Z,0.00
2018-10-03T00:55:59.931Z,0.00
2018-10-03T00:56:59.922Z,0.00
2018-10-03T00:57:59.906Z,0.00
2018-10-03T00:58:59.890Z,0.00
2018-10-03T00:59:59.883Z,0.00
2018-10-03T01:00:59.901Z,0.00
2018-10-03T01:01:59.856Z,0.00
2018-10-03T01:02:59.846Z,0.00
2018-10-03T01:03:59.834Z,0.00
2018-10-03T01:04:59.826Z,0.00
2018-10-03T01:05:59.835Z,0.00
2018-10-03T01:06:59.801Z,0.00
2018-10-03T01:07:59.798Z,0.00
2018-10-03T01:08:59.788Z,0.00
2018-10-03T01:09:59.771Z,0.00
2018-10-03T01:10:59.782Z,0.00
2018-10-03T01:11:59.745Z,0.00
2018-10-03T01:12:59.737Z,0.00
2018-10-03T01:13:59.722Z,0.00
2018-10-03T01:14:59.718Z,0.00
2018-10-03T01:15:59.721Z,0.00
2018-10-03T01:16:59.689Z,0.00
2018-10-03T01:17:59.676Z,0.00
2018-10-03T01:18:59.666Z,0.00
2018-10-03T01:19:59.658Z,0.00
2018-10-03T01:20:59.685Z,0.00
2018-10-03T01:21:59.638Z,0.00
2018-10-03T01:22:59.620Z,0.00
2018-10-03T01:23:59.613Z,0.00
2018-10-03T01:24:59.598Z,0.00
2018-10-03T01:25:59.607Z,0.00
2018-10-03T01:26:59.580Z,0.00
2018-10-03T01:27:59.569Z,0.00
2018-10-03T01:28:59.558Z,0.00
2018-10-03T01:29:59.543Z,0.00
2018-10-03T01:30:59.553Z,0.00
2018-10-03T01:31:59.563Z,0.00
2018-10-03T01:32:59.505Z,0.00
2018-10-03T01:33:59.500Z,0.00
2018-10-03T01:34:59.484Z,0.00
2018-10-03T01:35:59.496Z,0.00
2018-10-03T01:36:59.462Z,0.00
2018-10-03T01:37:59.448Z,0.00
2018-10-03T01:38:59.437Z,0.00
2018-10-03T01:39:59.432Z,0.00
2018-10-03T01:40:59.438Z,0.00
2018-10-03T01:41:59.405Z,0.00
2018-10-03T01:42:59.392Z,0.00
2018-10-03T01:43:59.381Z,0.00
2018-10-03T01:44:59.370Z,0.00
2018-10-03T01:45:59.390Z,0.00
2018-10-03T01:46:59.347Z,0.00
2018-10-03T01:47:59.335Z,0.00
2018-10-03T01:48:59.324Z,0.00
2018-10-03T01:49:59.312Z,0.00
2018-10-03T01:50:59.325Z,0.00
2018-10-03T01:51:59.294Z,0.00
2018-10-03T01:52:59.291Z,0.00
2018-10-03T01:53:59.268Z,0.00
2018-10-03T01:54:59.258Z,0.00
2018-10-03T01:55:59.272Z,0.00
2018-10-03T01:56:59.244Z,0.00
2018-10-03T01:57:59.233Z,0.00
2018-10-03T01:58:59.214Z,0.00
2018-10-03T01:59:59.202Z,0.00
2018-10-03T02:00:59.215Z,0.00
2018-10-03T02:01:59.184Z,0.00
2018-10-03T02:02:59.168Z,0.00
2018-10-03T02:03:59.156Z,0.00
2018-10-03T02:04:59.145Z,0.00
2018-10-03T02:05:59.155Z,0.00
2018-10-03T02:06:59.179Z,0.00
2018-10-03T02:07:59.108Z,0.00
2018-10-03T02:08:59.099Z,0.00
2018-10-03T02:09:59.101Z,0.00
2018-10-03T02:10:59.098Z,0.00
2018-10-03T02:11:59.066Z,0.00
2018-10-03T02:12:59.059Z,0.00
2018-10-03T02:13:59.041Z,0.00
2018-10-03T02:14:59.037Z,0.00
2018-10-03T02:15:59.044Z,0.00
2018-10-03T02:16:59.035Z,0.00
2018-10-03T02:17:58.996Z,0.00
2018-10-03T02:18:58.998Z,0.00
2018-10-03T02:19:59.006Z,0.00
2018-10-03T02:20:58.992Z,0.00
2018-10-03T02:21:58.952Z,0.00
2018-10-03T02:22:58.951Z,0.00
2018-10-03T02:23:58.936Z,0.00
2018-10-03T02:24:58.917Z,0.00
2018-10-03T02:25:58.930Z,0.00
2018-10-03T02:26:58.897Z,0.00
2018-10-03T02:27:58.894Z,0.00
2018-10-03T02:28:58.872Z,0.00
2018-10-03T02:29:58.866Z,0.00
2018-10-03T02:30:58.881Z,0.00
2018-10-03T02:31:58.841Z,0.00
2018-10-03T02:32:58.829Z,0.00
2018-10-03T02:33:58.816Z,0.00
2018-10-03T02:34:58.810Z,0.00
2018-10-03T02:35:58.797Z,0.00
2018-10-03T02:36:58.811Z,0.00
2018-10-03T02:37:58.772Z,0.00
2018-10-03T02:38:58.806Z,0.00
2018-10-03T02:39:58.750Z,0.00
2018-10-03T02:40:58.767Z,0.00
2018-10-03T02:41:58.742Z,0.00
2018-10-03T02:42:58.717Z,0.00
2018-10-03T02:43:58.703Z,0.00
2018-10-03T02:44:58.693Z,0.00
2018-10-03T02:45:58.685Z,0.00
2018-10-03T02:46:58.692Z,0.00
2018-10-03T02:47:58.660Z,0.00
2018-10-03T02:48:58.647Z,0.00
2018-10-03T02:49:58.644Z,0.00
2018-10-03T02:50:58.627Z,0.00
2018-10-03T02:51:58.651Z,0.00
2018-10-03T02:52:58.600Z,0.00
2018-10-03T02:53:58.590Z,0.00
2018-10-03T02:54:58.592Z,0.00
2018-10-03T02:55:58.573Z,0.00
2018-10-03T02:56:58.587Z,0.00
2018-10-03T02:57:58.608Z,0.00
2018-10-03T02:58:58.546Z,0.00
2018-10-03T02:59:58.528Z,0.00
2018-10-03T03:00:58.518Z,0.00
2018-10-03T03:01:58.533Z,0.00
2018-10-03T03:02:58.486Z,0.00
2018-10-03T03:03:58.479Z,0.00
2018-10-03T03:04:58.463Z,0.00
2018-10-03T03:05:58.454Z,0.00
2018-10-03T03:06:58.471Z,0.00
2018-10-03T03:07:58.432Z,0.00
2018-10-03T03:08:58.429Z,0.00
2018-10-03T03:09:58.408Z,0.00
2018-10-03T03:10:58.396Z,0.00
2018-10-03T03:11:58.417Z,0.00
2018-10-03T03:12:58.382Z,0.00
2018-10-03T03:13:58.362Z,0.00
2018-10-03T03:14:58.351Z,0.00
2018-10-03T03:15:58.343Z,0.00
2018-10-03T03:16:58.355Z,0.00
2018-10-03T03:17:58.318Z,0.00
2018-10-03T03:18:58.307Z,0.00
2018-10-03T03:19:58.297Z,0.00
2018-10-03T03:20:58.285Z,0.00
2018-10-03T03:21:58.295Z,0.00
2018-10-03T03:22:58.263Z,0.00
2018-10-03T03:23:58.248Z,0.00
2018-10-03T03:24:58.249Z,0.00
2018-10-03T03:25:58.226Z,0.00
2018-10-03T03:26:58.237Z,0.00
2018-10-03T03:27:58.206Z,0.00
2018-10-03T03:28:58.191Z,0.00
2018-10-03T03:29:58.183Z,0.00
2018-10-03T03:30:58.175Z,0.00
2018-10-03T03:31:58.181Z,0.00
2018-10-03T03:32:58.146Z,0.00
2018-10-03T03:33:58.136Z,0.00
2018-10-03T03:34:58.124Z,0.00
2018-10-03T03:35:58.112Z,0.00
2018-10-03T03:36:58.123Z,0.00
2018-10-03T03:37:58.096Z,0.00
2018-10-03T03:38:58.080Z,0.00
2018-10-03T03:39:58.072Z,0.00
2018-10-03T03:40:58.056Z,0.00
2018-10-03T03:41:58.082Z,0.00
2018-10-03T03:42:58.037Z,0.00
2018-10-03T03:43:58.023Z,0.00
2018-10-03T03:44:58.020Z,0.00
2018-10-03T03:45:58.004Z,0.00
2018-10-03T03:46:58.012Z,0.00
2018-10-03T03:47:57.978Z,0.00
2018-10-03T03:48:57.968Z,0.00
2018-10-03T03:49:57.966Z,0.00
2018-10-03T03:50:57.979Z,0.00
2018-10-03T03:51:57.959Z,0.00
2018-10-03T03:52:57.923Z,0.00
2018-10-03T03:53:57.910Z,0.00
2018-10-03T03:54:57.898Z,0.00
2018-10-03T03:55:57.888Z,0.00
2018-10-03T03:56:57.916Z,0.00
2018-10-03T03:57:57.867Z,0.00
2018-10-03T03:58:57.861Z,0.00
2018-10-03T03:59:57.843Z,0.00
2018-10-03T04:00:57.831Z,0.00
2018-10-03T04:01:57.842Z,0.00
2018-10-03T04:02:57.812Z,0.00
2018-10-03T04:03:57.798Z,0.00
2018-10-03T04:04:57.784Z,0.00
2018-10-03T04:05:57.781Z,0.00
2018-10-03T04:06:57.790Z,0.00
2018-10-03T04:07:57.754Z,0.00
2018-10-03T04:08:57.739Z,0.00
2018-10-03T04:09:57.730Z,0.00
2018-10-03T04:10:57.717Z,0.00
2018-10-03T04:11:57.734Z,0.00
2018-10-03T04:12:57.698Z,0.00
2018-10-03T04:13:57.685Z,0.00
2018-10-03T04:14:57.677Z,0.00
2018-10-03T04:15:57.665Z,0.00
2018-10-03T04:16:57.671Z,0.00
2018-10-03T04:17:57.640Z,0.00
2018-10-03T04:18:57.627Z,0.00
2018-10-03T04:19:57.620Z,0.00
2018-10-03T04:20:57.606Z,0.00
2018-10-03T04:21:57.620Z,0.00
2018-10-03T04:22:57.591Z,0.00
2018-10-03T04:23:57.573Z,0.00
2018-10-03T04:24:57.559Z,0.00
2018-10-03T04:25:57.550Z,0.00
2018-10-03T04:26:57.544Z,0.00
2018-10-03T04:27:57.550Z,0.00
2018-10-03T04:28:57.513Z,0.00
2018-10-03T04:29:57.506Z,0.00
2018-10-03T04:30:57.491Z,0.00
2018-10-03T04:31:57.533Z,0.00
2018-10-03T04:32:57.501Z,0.00
2018-10-03T04:33:57.462Z,0.00
2018-10-03T04:34:57.453Z,0.00
2018-10-03T04:35:57.433Z,0.00
2018-10-03T04:36:57.428Z,0.00
2018-10-03T04:37:57.437Z,0.00
2018-10-03T04:38:57.405Z,0.00
2018-10-03T04:39:57.388Z,0.00
2018-10-03T04:40:57.377Z,0.00
2018-10-03T04:41:57.369Z,0.00
2018-10-03T04:42:57.401Z,0.00
2018-10-03T04:43:57.346Z,0.00
2018-10-03T04:44:57.339Z,0.00
2018-10-03T04:45:57.325Z,0.00
2018-10-03T04:46:57.310Z,0.00
2018-10-03T04:47:57.339Z,0.00
2018-10-03T04:48:57.342Z,0.00
2018-10-03T04:49:57.275Z,0.00
2018-10-03T04:50:57.264Z,0.00
2018-10-03T04:51:57.265Z,0.00
2018-10-03T04:52:57.267Z,0.00
2018-10-03T04:53:57.229Z,0.00
2018-10-03T04:54:57.236Z,0.00
2018-10-03T04:55:57.206Z,0.00
2018-10-03T04:56:57.208Z,0.00
2018-10-03T04:57:57.209Z,0.00
2018-10-03T04:58:57.179Z,0.00
2018-10-03T04:59:57.162Z,0.00
2018-10-03T05:00:57.155Z,0.00
2018-10-03T05:01:57.144Z,0.00
2018-10-03T05:02:57.153Z,0.00
2018-10-03T05:03:57.121Z,0.00
2018-10-03T05:04:57.111Z,0.00
2018-10-03T05:05:57.094Z,0.00
2018-10-03T05:06:57.161Z,4.00
2018-10-03T05:07:57.096Z,4.00
2018-10-03T05:08:57.059Z,0.00
2018-10-03T05:09:57.050Z,4.00
2018-10-03T05:10:57.049Z,4.00
2018-10-03T05:11:57.026Z,4.00
2018-10-03T05:12:57.039Z,8.00
2018-10-03T05:13:57.009Z,8.00
2018-10-03T05:14:56.999Z,8.00
2018-10-03T05:15:56.984Z,12.00
2018-10-03T05:16:56.980Z,12.00
2018-10-03T05:17:56.985Z,16.00
2018-10-03T05:18:56.949Z,16.00
2018-10-03T05:19:56.942Z,20.00
2018-10-03T05:20:56.926Z,20.00
2018-10-03T05:21:56.915Z,24.00
2018-10-03T05:22:56.927Z,32.00
2018-10-03T05:23:56.889Z,36.00
2018-10-03T05:24:56.879Z,40.00
2018-10-03T05:25:56.870Z,52.00
2018-10-03T05:26:56.856Z,60.00
2018-10-03T05:27:56.986Z,64.00
2018-10-03T05:28:56.833Z,72.00
2018-10-03T05:29:56.824Z,80.00
2018-10-03T05:30:56.819Z,84.00
2018-10-03T05:31:56.802Z,100.00
2018-10-03T05:32:56.812Z,112.00
2018-10-03T05:33:56.780Z,120.00
2018-10-03T05:34:56.769Z,132.00
2018-10-03T05:35:56.755Z,148.00
2018-10-03T05:36:56.744Z,164.00
2018-10-03T05:37:56.756Z,176.00
2018-10-03T05:38:56.727Z,184.00
2018-10-03T05:39:56.710Z,192.00
2018-10-03T05:40:56.707Z,212.00
2018-10-03T05:41:56.689Z,232.00
2018-10-03T05:42:56.714Z,252.00
2018-10-03T05:43:56.666Z,268.00
2018-10-03T05:44:56.655Z,296.00
2018-10-03T05:45:56.644Z,328.00
2018-10-03T05:46:56.631Z,360.00
2018-10-03T05:47:56.656Z,388.00
2018-10-03T05:48:56.723Z,428.00
2018-10-03T05:49:56.602Z,464.00
2018-10-03T05:50:56.590Z,468.00
2018-10-03T05:51:56.575Z,496.00
2018-10-03T05:52:56.589Z,540.00
2018-10-03T05:53:56.554Z,580.00
2018-10-03T05:54:56.542Z,616.00
2018-10-03T05:55:56.537Z,640.00
2018-10-03T05:56:56.518Z,660.00
2018-10-03T05:57:56.530Z,688.00
2018-10-03T05:58:56.503Z,748.00
2018-10-03T05:59:56.485Z,792.00
2018-10-03T06:00:56.475Z,828.00
2018-10-03T06:01:56.462Z,856.00
2018-10-03T06:02:56.557Z,928.00
2018-10-03T06:03:56.443Z,1000.00
2018-10-03T06:04:56.429Z,1032.00
2018-10-03T06:05:56.426Z,1068.00
2018-10-03T06:06:56.409Z,1124.00
2018-10-03T06:07:56.397Z,1172.00
2018-10-03T06:08:56.408Z,1248.00
2018-10-03T06:09:56.369Z,1344.00
2018-10-03T06:10:56.363Z,1416.00
2018-10-03T06:11:56.399Z,1400.00
2018-10-03T06:12:56.361Z,1372.00
2018-10-03T06:13:56.336Z,1376.00
2018-10-03T06:14:56.318Z,1432.00
2018-10-03T06:15:56.307Z,1516.00
2018-10-03T06:16:56.291Z,1572.00
2018-10-03T06:17:56.289Z,1628.00
2018-10-03T06:18:56.295Z,1752.00
2018-10-03T06:19:56.269Z,1816.00
2018-10-03T06:20:56.247Z,1924.00
2018-10-03T06:21:56.236Z,2024.00
2018-10-03T06:22:56.237Z,2116.00
2018-10-03T06:23:56.235Z,2228.00
2018-10-03T06:24:56.201Z,2312.00
2018-10-03T06:25:56.191Z,2308.00
2018-10-03T06:26:56.196Z,2304.00
2018-10-03T06:27:56.242Z,2332.00
2018-10-03T06:28:56.180Z,2256.00
2018-10-03T06:29:56.149Z,2196.00
2018-10-03T06:30:56.138Z,2212.00
2018-10-03T06:31:56.121Z,2208.00
2018-10-03T06:32:56.110Z,2264.00
2018-10-03T06:33:56.131Z,2344.00
2018-10-03T06:34:56.090Z,2444.00
2018-10-03T06:35:56.076Z,2488.00
2018-10-03T06:36:56.070Z,2496.00
2018-10-03T06:37:56.056Z,2508.00
2018-10-03T06:38:56.065Z,2496.00
2018-10-03T06:39:56.034Z,2392.00
2018-10-03T06:40:56.021Z,2280.00
2018-10-03T06:41:56.007Z,2324.00
2018-10-03T06:42:55.997Z,2420.00
2018-10-03T06:43:56.016Z,2380.00
2018-10-03T06:44:55.982Z,2392.00
2018-10-03T06:45:55.962Z,2392.00
2018-10-03T06:46:55.953Z,2400.00
2018-10-03T06:47:55.946Z,2444.00
2018-10-03T06:48:55.951Z,2524.00
2018-10-03T06:49:55.916Z,2564.00
2018-10-03T06:50:55.914Z,2692.00
2018-10-03T06:51:55.895Z,2912.00
2018-10-03T06:52:55.884Z,2976.00
2018-10-03T06:53:55.900Z,3052.00
2018-10-03T06:54:55.896Z,3092.00
2018-10-03T06:55:55.854Z,3040.00
2018-10-03T06:56:55.854Z,3144.00
2018-10-03T06:57:55.827Z,3368.00
2018-10-03T06:58:55.852Z,3620.00
2018-10-03T06:59:55.810Z,3672.00
2018-10-03T07:00:55.796Z,3744.00
2018-10-03T07:01:55.782Z,3704.00
2018-10-03T07:02:55.798Z,3616.00
2018-10-03T07:03:55.783Z,3640.00
2018-10-03T07:04:55.754Z,3684.00
2018-10-03T07:05:55.773Z,3752.00
2018-10-03T07:06:55.729Z,3728.00
2018-10-03T07:07:55.713Z,4016.00
2018-10-03T07:08:55.730Z,3916.00
2018-10-03T07:09:55.690Z,4084.00
2018-10-03T07:10:55.684Z,4068.00
2018-10-03T07:11:55.691Z,3920.00
2018-10-03T07:12:55.692Z,3840.00
2018-10-03T07:13:55.670Z,3800.00
2018-10-03T07:14:55.635Z,3924.00
2018-10-03T07:15:55.622Z,4396.00
2018-10-03T07:16:55.612Z,4448.00
2018-10-03T07:17:55.601Z,4060.00
2018-10-03T07:18:55.612Z,4068.00
2018-10-03T07:19:55.584Z,3928.00
2018-10-03T07:20:55.566Z,3764.00
2018-10-03T07:21:55.553Z,3648.00
2018-10-03T07:22:55.547Z,3724.00
2018-10-03T07:23:55.554Z,3996.00
2018-10-03T07:24:55.522Z,4420.00
2018-10-03T07:25:55.514Z,4764.00
2018-10-03T07:26:55.497Z,4740.00
2018-10-03T07:27:55.486Z,4592.00
2018-10-03T07:28:55.498Z,4408.00
2018-10-03T07:29:55.462Z,4188.00
2018-10-03T07:30:55.452Z,4268.00
2018-10-03T07:31:55.440Z,4460.00
2018-10-03T07:32:55.432Z,4280.00
2018-10-03T07:33:55.441Z,4180.00
2018-10-03T07:34:55.406Z,4128.00
2018-10-03T07:35:55.396Z,4032.00
2018-10-03T07:36:55.385Z,3988.00
2018-10-03T07:37:55.373Z,3684.00
2018-10-03T07:38:55.399Z,3496.00
2018-10-03T07:39:55.373Z,3504.00
2018-10-03T07:40:55.355Z,3684.00
2018-10-03T07:41:55.328Z,4148.00
2018-10-03T07:42:55.333Z,4180.00
2018-10-03T07:43:55.407Z,4496.00
2018-10-03T07:44:55.329Z,5028.00
2018-10-03T07:45:55.303Z,5412.00
2018-10-03T07:46:55.286Z,5800.00
2018-10-03T07:47:55.283Z,6288.00
2018-10-03T07:48:55.272Z,6128.00
2018-10-03T07:49:55.238Z,6136.00
2018-10-03T07:50:55.271Z,6140.00
2018-10-03T07:51:55.254Z,5936.00
2018-10-03T07:52:55.206Z,5900.00
2018-10-03T07:53:55.194Z,5776.00
2018-10-03T07:54:55.205Z,5744.00
2018-10-03T07:55:55.196Z,5848.00
2018-10-03T07:56:55.171Z,5712.00
2018-10-03T07:57:55.151Z,5316.00
2018-10-03T07:58:55.141Z,5368.00
2018-10-03T07:59:55.154Z,4920.00
2018-10-03T08:00:55.113Z,4792.00
2018-10-03T08:01:55.102Z,5172.00
2018-10-03T08:02:55.107Z,5444.00
2018-10-03T08:03:55.084Z,5484.00
2018-10-03T08:04:55.091Z,5492.00
2018-10-03T08:05:55.057Z,5576.00
2018-10-03T08:06:55.044Z,5820.00
2018-10-03T08:07:55.032Z,5896.00
2018-10-03T08:08:55.049Z,5868.00
2018-10-03T08:09:55.072Z,6128.00
2018-10-03T08:10:54.998Z,6292.00
2018-10-03T08:11:54.988Z,6352.00
2018-10-03T08:12:54.977Z,6008.00
2018-10-03T08:13:54.973Z,5980.00
2018-10-03T08:14:54.984Z,6048.00
2018-10-03T08:15:54.945Z,6032.00
2018-10-03T08:16:54.934Z,6112.00
2018-10-03T08:17:54.926Z,6268.00
2018-10-03T08:18:54.919Z,6420.00
2018-10-03T08:19:54.923Z,6396.00
2018-10-03T08:20:54.895Z,6240.00
2018-10-03T08:21:54.875Z,6024.00
2018-10-03T08:22:54.871Z,6252.00
2018-10-03T08:23:54.853Z,6576.00
2018-10-03T08:24:54.866Z,6732.00
2018-10-03T08:25:54.831Z,6900.00
2018-10-03T08:26:54.821Z,7088.00
2018-10-03T08:27:54.822Z,7972.00
2018-10-03T08:28:54.797Z,7536.00
2018-10-03T08:29:54.814Z,7484.00
2018-10-03T08:30:54.786Z,7484.00
2018-10-03T08:31:54.766Z,7136.00
2018-10-03T08:32:54.844Z,7580.00
2018-10-03T08:33:54.744Z,7168.00
2018-10-03T08:34:54.752Z,7464.00
2018-10-03T08:35:54.717Z,7380.00
2018-10-03T08:36:54.706Z,7288.00
2018-10-03T08:37:54.695Z,7608.00
2018-10-03T08:38:54.872Z,7708.00
2018-10-03T08:39:54.854Z,8032.00
2018-10-03T08:40:54.756Z,8168.00
2018-10-03T08:41:54.707Z,8468.00
2018-10-03T08:42:54.669Z,8636.00
2018-10-03T08:43:54.642Z,8556.00
2018-10-03T08:44:54.639Z,8504.00
2018-10-03T08:45:54.626Z,8484.00
2018-10-03T08:46:54.613Z,8648.00
2018-10-03T08:47:54.583Z,8880.00
2018-10-03T08:48:54.576Z,8964.00
2018-10-03T08:49:54.582Z,9092.00
2018-10-03T08:50:54.547Z,9252.00
2018-10-03T08:51:54.546Z,9148.00
2018-10-03T08:52:54.528Z,9120.00
2018-10-03T08:53:54.513Z,9224.00
2018-10-03T08:54:54.533Z,9116.00
2018-10-03T08:55:54.490Z,9216.00
2018-10-03T08:56:54.479Z,9212.00
2018-10-03T08:57:54.478Z,9376.00
2018-10-03T08:58:54.460Z,9276.00
2018-10-03T08:59:54.470Z,9572.00
2018-10-03T09:00:54.438Z,9976.00
2018-10-03T09:01:54.423Z,9840.00
2018-10-03T09:02:54.410Z,9744.00
2018-10-03T09:03:54.399Z,9732.00
2018-10-03T09:04:54.420Z,8820.00
2018-10-03T09:05:54.379Z,8168.00
2018-10-03T09:06:54.367Z,7540.00
2018-10-03T09:07:54.356Z,7436.00
2018-10-03T09:08:54.375Z,7788.00
2018-10-03T09:09:54.363Z,8120.00
2018-10-03T09:10:54.333Z,8564.00
2018-10-03T09:11:54.309Z,9292.00
2018-10-03T09:12:54.319Z,8772.00
2018-10-03T09:13:54.286Z,9048.00
2018-10-03T09:14:54.300Z,8696.00
2018-10-03T09:15:54.263Z,8584.00
2018-10-03T09:16:54.272Z,8844.00
2018-10-03T09:17:54.243Z,8904.00
2018-10-03T09:18:54.240Z,8720.00
2018-10-03T09:19:54.241Z,8640.00
2018-10-03T09:20:54.210Z,9292.00
2018-10-03T09:21:54.266Z,9864.00
2018-10-03T09:22:54.186Z,9876.00
2018-10-03T09:23:54.178Z,8744.00
2018-10-03T09:24:54.189Z,8368.00
2018-10-03T09:25:54.169Z,7480.00
2018-10-03T09:26:54.138Z,6916.00
2018-10-03T09:27:54.128Z,6772.00
2018-10-03T09:28:54.118Z,6868.00
2018-10-03T09:29:54.132Z,7152.00
2018-10-03T09:30:54.094Z,7340.00
2018-10-03T09:31:54.091Z,7400.00
2018-10-03T09:32:54.084Z,7536.00
2018-10-03T09:33:54.061Z,8276.00
2018-10-03T09:34:54.054Z,8512.00
2018-10-03T09:35:54.077Z,8436.00
2018-10-03T09:36:54.032Z,8144.00
2018-10-03T09:37:54.022Z,7636.00
2018-10-03T09:38:54.003Z,6988.00
2018-10-03T09:39:53.994Z,6688.00
2018-10-03T09:40:54.017Z,6668.00
2018-10-03T09:41:53.980Z,7048.00
2018-10-03T09:42:53.959Z,8036.00
2018-10-03T09:43:53.970Z,7220.00
2018-10-03T09:44:53.941Z,7840.00
2018-10-03T09:45:53.958Z,7256.00
2018-10-03T09:46:53.913Z,7984.00
2018-10-03T09:47:53.906Z,8032.00
2018-10-03T09:48:53.891Z,7836.00
2018-10-03T09:49:53.885Z,7640.00
2018-10-03T09:50:53.893Z,6936.00
2018-10-03T09:51:53.868Z,7520.00
2018-10-03T09:52:53.850Z,9096.00
2018-10-03T09:53:53.838Z,9496.00
2018-10-03T09:54:53.826Z,9384.00
2018-10-03T09:55:53.838Z,9672.00
2018-10-03T09:56:53.826Z,8600.00
2018-10-03T09:57:53.788Z,8552.00
2018-10-03T09:58:53.816Z,8596.00
2018-10-03T09:59:53.766Z,7424.00
2018-10-03T10:00:53.883Z,6988.00
2018-10-03T10:01:53.745Z,7216.00
2018-10-03T10:02:53.737Z,7388.00
2018-10-03T10:03:53.722Z,7300.00
2018-10-03T10:04:53.708Z,7236.00
2018-10-03T10:05:53.722Z,7284.00
2018-10-03T10:06:53.687Z,7588.00
2018-10-03T10:07:53.675Z,8524.00
2018-10-03T10:08:53.663Z,10012.00
2018-10-03T10:09:53.658Z,11200.00
2018-10-03T10:10:53.673Z,11512.00
2018-10-03T10:11:53.628Z,11844.00
2018-10-03T10:12:53.617Z,11580.00
2018-10-03T10:13:53.606Z,11332.00
2018-10-03T10:14:53.609Z,11540.00
2018-10-03T10:15:53.607Z,11280.00
2018-10-03T10:16:53.573Z,10788.00
2018-10-03T10:17:53.561Z,10344.00
2018-10-03T10:18:53.581Z,9144.00
2018-10-03T10:19:53.542Z,8924.00
2018-10-03T10:20:53.633Z,9376.00
2018-10-03T10:21:53.515Z,8852.00
2018-10-03T10:22:53.505Z,8740.00
2018-10-03T10:23:53.498Z,9020.00
2018-10-03T10:24:53.488Z,9176.00
2018-10-03T10:25:53.507Z,9348.00
2018-10-03T10:26:53.460Z,9976.00
2018-10-03T10:27:53.447Z,10904.00
2018-10-03T10:28:53.439Z,11572.00
2018-10-03T10:29:53.432Z,11408.00
2018-10-03T10:30:53.439Z,10628.00
2018-10-03T10:31:53.454Z,9592.00
2018-10-03T10:32:53.423Z,8940.00
2018-10-03T10:33:53.396Z,8004.00
2018-10-03T10:34:53.368Z,7444.00
2018-10-03T10:35:53.384Z,7440.00
2018-10-03T10:36:53.353Z,7468.00
2018-10-03T10:37:53.484Z,7572.00
2018-10-03T10:38:53.339Z,7956.00
2018-10-03T10:39:53.313Z,8360.00
2018-10-03T10:40:53.372Z,8232.00
2018-10-03T10:41:53.298Z,8052.00
2018-10-03T10:42:53.279Z,7924.00
2018-10-03T10:43:53.267Z,7724.00
2018-10-03T10:44:53.258Z,7700.00
2018-10-03T10:45:53.278Z,7884.00
2018-10-03T10:46:53.237Z,8000.00
2018-10-03T10:47:53.257Z,8352.00
2018-10-03T10:48:53.214Z,8720.00
2018-10-03T10:49:53.215Z,9304.00
2018-10-03T10:50:53.212Z,9772.00
2018-10-03T10:51:53.216Z,10148.00
2018-10-03T10:52:53.171Z,10544.00
2018-10-03T10:53:53.158Z,11156.00
2018-10-03T10:54:53.144Z,11728.00
2018-10-03T10:55:53.161Z,12404.00
2018-10-03T10:56:53.120Z,12840.00
2018-10-03T10:57:53.108Z,13936.00
2018-10-03T10:58:53.100Z,14040.00
2018-10-03T10:59:53.207Z,13812.00
2018-10-03T11:00:53.101Z,13800.00
2018-10-03T11:01:53.077Z,13108.00
2018-10-03T11:02:53.059Z,12440.00
2018-10-03T11:03:53.042Z,11884.00
2018-10-03T11:04:53.034Z,11488.00
2018-10-03T11:05:53.041Z,12120.00
2018-10-03T11:06:53.018Z,12532.00
2018-10-03T11:07:53.005Z,12896.00
2018-10-03T11:08:52.983Z,12576.00
2018-10-03T11:09:52.975Z,12248.00
2018-10-03T11:10:53.001Z,12032.00
2018-10-03T11:11:52.956Z,11968.00
2018-10-03T11:12:52.942Z,12188.00
2018-10-03T11:13:52.937Z,12604.00
2018-10-03T11:14:52.919Z,13512.00
2018-10-03T11:15:52.909Z,14240.00
2018-10-03T11:16:52.955Z,14936.00
2018-10-03T11:17:52.887Z,15952.00
2018-10-03T11:18:52.874Z,16480.00
2018-10-03T11:19:52.874Z,16288.00
2018-10-03T11:20:52.855Z,15780.00
2018-10-03T11:21:52.861Z,17568.00
2018-10-03T11:22:52.828Z,15408.00
2018-10-03T11:23:53.152Z,14992.00
2018-10-03T11:24:52.938Z,15316.00
2018-10-03T11:25:52.801Z,15444.00
2018-10-03T11:26:52.807Z,16832.00
2018-10-03T11:27:52.780Z,16288.00
2018-10-03T11:28:52.759Z,17056.00
2018-10-03T11:29:52.752Z,20480.00
2018-10-03T11:30:52.740Z,20512.00
2018-10-03T11:31:52.750Z,20800.00
2018-10-03T11:32:52.715Z,19520.00
2018-10-03T11:33:52.703Z,15448.00
2018-10-03T11:34:52.703Z,16044.00
2018-10-03T11:35:52.685Z,21696.00
2018-10-03T11:36:52.695Z,17984.00
2018-10-03T11:37:52.660Z,22176.00
2018-10-03T11:38:52.648Z,23456.00
2018-10-03T11:39:52.634Z,19104.00
2018-10-03T11:40:52.624Z,20960.00
2018-10-03T11:41:52.655Z,23264.00
2018-10-03T11:42:52.603Z,24352.00
2018-10-03T11:43:52.689Z,24704.00
2018-10-03T11:44:52.582Z,26208.00
2018-10-03T11:45:52.568Z,25440.00
2018-10-03T11:46:52.582Z,25952.00
2018-10-03T11:47:52.545Z,25856.00
2018-10-03T11:48:52.536Z,27968.00
2018-10-03T11:49:52.548Z,20512.00
2018-10-03T11:50:52.516Z,31936.00
2018-10-03T11:51:52.525Z,28224.00
2018-10-03T11:52:52.532Z,25728.00
2018-10-03T11:53:52.484Z,25280.00
2018-10-03T11:54:52.468Z,24768.00
2018-10-03T11:55:52.456Z,23904.00
2018-10-03T11:56:52.480Z,23264.00
2018-10-03T11:57:52.433Z,24192.00
2018-10-03T11:58:52.424Z,19232.00
2018-10-03T11:59:52.412Z,22528.00
2018-10-03T12:00:52.399Z,21696.00
2018-10-03T12:01:52.417Z,22752.00
2018-10-03T12:02:52.533Z,12804.00
2018-10-03T12:03:52.377Z,16096.00
2018-10-03T12:04:52.364Z,7668.00
2018-10-03T12:05:52.343Z,7524.00
2018-10-03T12:06:52.356Z,7484.00
2018-10-03T12:07:52.340Z,7432.00
2018-10-03T12:08:52.310Z,7980.00
2018-10-03T12:09:52.299Z,8640.00
2018-10-03T12:10:52.288Z,9064.00
2018-10-03T12:11:52.310Z,9488.00
2018-10-03T12:12:52.266Z,9728.00
2018-10-03T12:13:52.266Z,10008.00
2018-10-03T12:14:52.245Z,9988.00
2018-10-03T12:15:52.230Z,10252.00
2018-10-03T12:16:52.244Z,10812.00
2018-10-03T12:17:52.208Z,11340.00
2018-10-03T12:18:52.203Z,12088.00
2018-10-03T12:19:52.185Z,18528.00
2018-10-03T12:20:52.173Z,12032.00
2018-10-03T12:21:52.191Z,11012.00
2018-10-03T12:22:52.151Z,10856.00
2018-10-03T12:23:52.144Z,10580.00
2018-10-03T12:24:52.131Z,10280.00
2018-10-03T12:25:52.121Z,9984.00
2018-10-03T12:26:52.139Z,9748.00
2018-10-03T12:27:52.098Z,9468.00
2018-10-03T12:28:52.084Z,8948.00
2018-10-03T12:29:52.092Z,8668.00
2018-10-03T12:30:52.061Z,8340.00
2018-10-03T12:31:52.075Z,8704.00
2018-10-03T12:32:52.039Z,8380.00